Time;durP1;ratioP1;P1;durP2;ratioP2;P2;SDS_P1;SDS_P2;PMS_P1;PMS_P2;Temp;Humidity;BMP_temperature;BMP_pressure;BME280_temperature;BME280_humidity;BME280_pressure;Samples;Min_cycle;Max_cycle;Signal;HPM_P1;HPM_P2
2022/07/09 00:00:12;;;;;;;24.33;18.20;;;19.30;99.90;;;;;;5072911;28;20495;-76
2022/07/09 00:02:38;;;;;;;29.23;18.30;;;19.70;99.90;;;;;;5073888;28;20052;-76
2022/07/09 00:05:04;;;;;;;29.63;19.05;;;19.80;99.90;;;;;;5072989;28;20067;-76
2022/07/09 00:07:30;;;;;;;29.75;18.30;;;19.80;99.90;;;;;;5073513;28;20082;-76
2022/07/09 00:09:56;;;;;;;25.10;18.88;;;19.80;99.90;;;;;;5073446;28;20036;-76
2022/07/09 00:12:21;;;;;;;28.02;19.52;;;19.60;99.90;;;;;;5072512;28;20469;-76
2022/07/09 00:14:47;;;;;;;23.48;18.17;;;19.30;99.90;;;;;;5073764;28;20063;-76
2022/07/09 00:17:13;;;;;;;26.30;18.27;;;19.10;99.90;;;;;;5073954;28;20021;-76
2022/07/09 00:19:39;;;;;;;27.95;19.50;;;18.90;99.90;;;;;;5073529;28;20020;-76
2022/07/09 00:22:05;;;;;;;33.22;20.58;;;19.20;99.90;;;;;;5073748;28;20029;-75
2022/07/09 00:24:32;;;;;;;26.85;19.70;;;19.10;99.90;;;;;;5072865;28;20032;-76
2022/07/09 00:26:57;;;;;;;34.20;20.13;;;19.00;99.90;;;;;;5072690;28;20029;-76
2022/07/09 00:29:23;;;;;;;26.00;19.83;;;19.10;99.90;;;;;;5073347;28;20079;-76
2022/07/09 00:31:49;;;;;;;29.27;20.27;;;18.80;99.90;;;;;;5073581;28;20473;-75
2022/07/09 00:34:15;;;;;;;30.52;19.45;;;19.10;99.90;;;;;;5073445;28;20423;-76
2022/07/09 00:36:40;;;;;;;24.48;18.98;;;19.10;99.90;;;;;;5072644;28;20107;-76
2022/07/09 00:39:06;;;;;;;35.47;19.08;;;19.20;99.90;;;;;;5059900;28;20021;-76
2022/07/09 00:41:32;;;;;;;26.35;19.05;;;19.10;99.90;;;;;;5073429;28;20392;-76
2022/07/09 00:43:58;;;;;;;27.83;19.30;;;18.70;99.90;;;;;;5073231;28;20019;-76
2022/07/09 00:46:23;;;;;;;28.23;19.80;;;19.00;99.90;;;;;;5071999;28;20389;-76
2022/07/09 00:48:49;;;;;;;26.02;17.92;;;18.90;99.90;;;;;;5072213;28;20021;-76
2022/07/09 00:51:17;;;;;;;29.98;19.70;;;19.20;99.90;;;;;;5073095;28;20028;-76
2022/07/09 00:53:46;;;;;;;27.85;18.80;;;19.30;99.90;;;;;;5071245;28;20029;-77
2022/07/09 00:56:12;;;;;;;28.60;19.05;;;19.00;99.90;;;;;;5073234;28;20036;-76
2022/07/09 00:58:38;;;;;;;28.23;18.92;;;19.30;99.90;;;;;;5072900;28;20384;-76
2022/07/09 01:01:06;;;;;;;29.52;19.85;;;19.20;99.90;;;;;;5072982;28;20023;-76
2022/07/09 01:03:31;;;;;;;24.00;18.63;;;18.90;99.90;;;;;;5072903;28;20476;-75
2022/07/09 01:05:58;;;;;;;25.67;17.95;;;18.70;99.90;;;;;;5072931;28;20025;-76
2022/07/09 01:08:25;;;;;;;27.80;18.42;;;18.80;99.90;;;;;;5072720;28;20040;-76
2022/07/09 01:10:51;;;;;;;29.63;18.75;;;18.90;99.90;;;;;;5072593;28;20029;-76
2022/07/09 01:13:18;;;;;;;30.65;19.92;;;19.10;99.90;;;;;;5073008;28;20036;-76
2022/07/09 01:15:43;;;;;;;30.92;18.52;;;19.20;99.90;;;;;;5071490;28;20032;-76
2022/07/09 01:18:12;;;;;;;24.75;19.25;;;19.10;99.90;;;;;;5073032;28;20040;-76
2022/07/09 01:20:38;;;;;;;30.25;19.80;;;19.00;99.90;;;;;;5071334;28;20020;-76
2022/07/09 01:23:04;;;;;;;31.38;19.77;;;18.80;99.90;;;;;;5071144;28;20354;-76
2022/07/09 01:25:41;;;;;;;29.55;19.55;;;18.90;99.90;;;;;;5071333;28;20060;-76
2022/07/09 01:28:09;;;;;;;28.45;20.33;;;18.90;99.90;;;;;;5071524;28;20032;-76
2022/07/09 01:30:37;;;;;;;35.00;20.77;;;19.00;99.90;;;;;;5072353;28;20036;-76
2022/07/09 01:33:03;;;;;;;29.00;20.10;;;19.00;99.90;;;;;;5072922;28;20020;-76
2022/07/09 01:35:29;;;;;;;30.15;18.90;;;19.10;99.90;;;;;;5072359;28;20029;-76
2022/07/09 01:37:55;;;;;;;35.83;20.60;;;19.20;99.90;;;;;;5060285;28;20174;-76
2022/07/09 01:40:22;;;;;;;25.30;19.65;;;19.20;99.90;;;;;;5067882;28;20071;-76
2022/07/09 01:42:48;;;;;;;36.40;20.58;;;19.20;99.90;;;;;;5072686;28;20024;-76
2022/07/09 01:45:17;;;;;;;28.50;19.13;;;19.00;99.90;;;;;;5071321;28;20396;-76
2022/07/09 01:47:43;;;;;;;29.88;20.70;;;18.80;99.90;;;;;;5072530;28;20021;-76
2022/07/09 01:50:09;;;;;;;29.13;20.73;;;18.60;99.90;;;;;;5072435;28;20059;-76
2022/07/09 01:52:36;;;;;;;27.92;20.95;;;18.60;99.90;;;;;;5072036;28;20029;-76
2022/07/09 01:55:02;;;;;;;30.23;21.38;;;18.70;99.90;;;;;;5072666;28;20472;-76
2022/07/09 01:57:27;;;;;;;24.05;20.20;;;18.70;99.90;;;;;;5071115;28;20036;-76
2022/07/09 01:59:53;;;;;;;29.67;22.38;;;18.90;99.90;;;;;;5056850;28;20028;-76
2022/07/09 02:02:19;;;;;;;33.17;22.80;;;18.90;99.90;;;;;;5076340;28;20038;-76
2022/07/09 02:04:46;;;;;;;35.17;24.00;;;19.10;99.90;;;;;;5076430;28;20107;-76
2022/07/09 02:07:15;;;;;;;35.38;23.80;;;19.00;99.90;;;;;;5076126;28;20528;-76
2022/07/09 02:09:41;;;;;;;33.50;23.70;;;19.10;99.90;;;;;;5075923;28;20036;-77
2022/07/09 02:12:07;;;;;;;37.92;25.27;;;19.10;99.90;;;;;;5074982;28;20111;-76
2022/07/09 02:14:33;;;;;;;38.70;24.75;;;19.20;99.90;;;;;;5075916;28;20009;-76
2022/07/09 02:16:58;;;;;;;34.58;24.83;;;19.30;99.90;;;;;;5076274;28;20165;-76
2022/07/09 02:19:24;;;;;;;31.08;23.60;;;19.20;99.90;;;;;;5075725;28;20413;-76
2022/07/09 02:21:50;;;;;;;30.58;24.35;;;19.10;99.90;;;;;;5075777;28;20044;-76
2022/07/09 02:24:16;;;;;;;32.45;23.98;;;19.00;99.90;;;;;;5075956;28;20112;-76
2022/07/09 02:26:41;;;;;;;33.85;23.75;;;18.80;99.90;;;;;;5075778;28;20102;-76
2022/07/09 02:29:07;;;;;;;38.35;26.48;;;19.20;99.90;;;;;;5075689;28;20044;-76
2022/07/09 02:31:33;;;;;;;33.33;25.70;;;19.50;99.90;;;;;;5074245;28;20025;-76
2022/07/09 02:33:59;;;;;;;43.03;26.23;;;19.70;99.90;;;;;;5074796;28;20036;-76
2022/07/09 02:36:25;;;;;;;32.95;25.70;;;19.60;99.90;;;;;;5057364;28;20067;-76
2022/07/09 02:38:51;;;;;;;36.55;26.35;;;19.60;99.90;;;;;;5060146;28;20166;-76
2022/07/09 02:41:16;;;;;;;34.20;25.95;;;19.70;99.90;;;;;;5074379;28;20024;-76
2022/07/09 02:43:43;;;;;;;34.58;26.05;;;19.40;99.90;;;;;;5075381;28;20380;-76
2022/07/09 02:46:09;;;;;;;36.65;27.10;;;19.50;99.90;;;;;;5061198;28;20480;-76
2022/07/09 02:48:35;;;;;;;37.50;28.38;;;19.50;99.90;;;;;;5054205;28;20484;-76
2022/07/09 02:51:01;;;;;;;35.10;27.52;;;19.20;99.90;;;;;;5054890;28;20069;-76
2022/07/09 02:53:27;;;;;;;42.88;28.10;;;19.10;99.90;;;;;;5055183;28;20095;-76
2022/07/09 02:55:52;;;;;;;41.85;28.10;;;19.20;99.90;;;;;;5054219;28;20116;-76
2022/07/09 02:58:18;;;;;;;39.17;27.33;;;19.20;99.90;;;;;;5055411;28;20036;-76
2022/07/09 03:00:44;;;;;;;37.33;25.42;;;19.40;99.90;;;;;;5055100;28;20029;-76
2022/07/09 03:03:10;;;;;;;39.75;27.27;;;19.50;99.90;;;;;;5041208;28;20473;-76
2022/07/09 03:05:36;;;;;;;39.70;25.80;;;19.50;99.90;;;;;;5055025;28;20025;-76
2022/07/09 03:08:02;;;;;;;37.90;25.85;;;19.20;99.90;;;;;;5054839;28;20090;-76
2022/07/09 03:10:29;;;;;;;34.72;26.70;;;19.00;99.90;;;;;;5053695;28;20095;-76
2022/07/09 03:12:55;;;;;;;36.08;26.20;;;18.80;99.90;;;;;;5053795;28;20032;-75
2022/07/09 03:15:21;;;;;;;32.58;27.15;;;18.60;99.90;;;;;;5055047;28;20499;-76
2022/07/09 03:17:47;;;;;;;32.33;26.45;;;18.90;99.90;;;;;;5054858;28;20061;-76
2022/07/09 03:20:14;;;;;;;43.67;27.80;;;19.30;99.90;;;;;;5054622;28;20025;-76
2022/07/09 03:22:40;;;;;;;36.90;27.38;;;19.40;99.90;;;;;;5054746;28;20025;-76
2022/07/09 03:25:07;;;;;;;33.65;26.42;;;19.50;99.90;;;;;;5054810;28;20138;-76
2022/07/09 03:27:34;;;;;;;36.97;25.67;;;19.50;99.90;;;;;;5054764;28;20029;-76
2022/07/09 03:30:01;;;;;;;30.52;26.80;;;19.50;99.90;;;;;;5054603;28;20396;-76
2022/07/09 03:32:27;;;;;;;37.47;26.13;;;19.50;99.90;;;;;;5053080;28;20171;-76
2022/07/09 03:34:53;;;;;;;33.75;26.15;;;19.20;99.90;;;;;;5054711;28;20476;-76
2022/07/09 03:37:19;;;;;;;34.83;26.30;;;19.00;99.90;;;;;;5053276;28;20086;-75
2022/07/09 03:39:45;;;;;;;37.55;26.60;;;18.80;99.90;;;;;;5053364;28;20389;-76
2022/07/09 03:42:11;;;;;;;37.55;27.73;;;18.90;99.90;;;;;;5054328;28;20041;-76
2022/07/09 03:44:37;;;;;;;37.25;26.63;;;19.10;99.90;;;;;;5054096;28;20453;-76
2022/07/09 03:47:04;;;;;;;38.10;26.67;;;19.40;99.90;;;;;;5053334;28;20063;-75
2022/07/09 03:49:30;;;;;;;37.38;25.70;;;19.60;99.90;;;;;;5053783;28;20063;-76
2022/07/09 03:51:56;;;;;;;39.50;26.63;;;19.60;99.90;;;;;;5054131;28;20389;-76
2022/07/09 03:54:22;;;;;;;32.30;26.95;;;19.70;99.90;;;;;;5054217;28;20055;-75
2022/07/09 03:56:47;;;;;;;31.30;26.70;;;19.40;99.90;;;;;;5054419;28;20079;-76
2022/07/09 03:59:13;;;;;;;32.22;27.27;;;19.00;99.90;;;;;;5053871;28;20071;-76
2022/07/09 04:01:39;;;;;;;40.60;27.30;;;18.90;99.90;;;;;;5052426;28;20017;-75
2022/07/09 04:04:05;;;;;;;40.25;27.70;;;18.90;99.90;;;;;;5054145;28;20032;-75
2022/07/09 04:06:31;;;;;;;45.63;29.55;;;18.60;99.90;;;;;;5052785;28;20239;-76
2022/07/09 04:08:57;;;;;;;36.45;28.90;;;18.70;99.90;;;;;;5053742;28;20491;-75
2022/07/09 04:11:23;;;;;;;38.92;29.33;;;18.30;99.90;;;;;;5053739;28;20025;-76
2022/07/09 04:13:48;;;;;;;44.90;29.73;;;18.40;99.90;;;;;;5053742;28;20381;-76
2022/07/09 04:16:15;;;;;;;38.90;29.50;;;18.60;99.90;;;;;;5052140;28;20435;-75
2022/07/09 04:18:43;;;;;;;35.00;28.75;;;18.70;99.90;;;;;;5053571;28;20078;-76
2022/07/09 04:21:09;;;;;;;40.90;29.20;;;18.90;99.90;;;;;;5052570;28;20071;-76
2022/07/09 04:23:36;;;;;;;43.38;31.40;;;18.70;99.90;;;;;;5053591;28;20472;-76
2022/07/09 04:26:02;;;;;;;43.55;28.35;;;18.60;99.90;;;;;;5053539;28;20393;-76
2022/07/09 04:28:28;;;;;;;35.42;28.35;;;18.70;99.90;;;;;;5053507;28;20099;-75
2022/07/09 04:30:55;;;;;;;37.25;27.48;;;18.80;99.90;;;;;;5053083;28;20120;-76
2022/07/09 04:33:21;;;;;;;37.17;28.42;;;19.00;99.90;;;;;;5053392;28;20115;-76
2022/07/09 04:35:46;;;;;;;40.88;28.55;;;19.00;99.90;;;;;;5052316;28;20528;-76
2022/07/09 04:38:12;;;;;;;41.90;28.00;;;19.30;99.90;;;;;;5053104;28;20029;-76
2022/07/09 04:40:39;;;;;;;36.03;26.65;;;19.50;99.90;;;;;;5052013;28;20063;-75
2022/07/09 04:43:05;;;;;;;33.55;26.23;;;19.50;99.90;;;;;;5053218;28;20033;-76
2022/07/09 04:45:32;;;;;;;39.30;25.80;;;19.70;99.90;;;;;;5051947;28;20024;-75
2022/07/09 04:47:58;;;;;;;33.20;25.92;;;19.40;99.90;;;;;;5053446;28;20071;-76
2022/07/09 04:50:25;;;;;;;33.17;25.20;;;19.30;99.90;;;;;;5052788;28;20036;-76
2022/07/09 04:52:51;;;;;;;36.30;25.48;;;19.10;99.90;;;;;;5053324;28;20354;-76
2022/07/09 04:55:17;;;;;;;35.42;26.35;;;19.00;99.90;;;;;;5035129;28;20091;-76
2022/07/09 04:57:43;;;;;;;33.80;24.45;;;19.40;99.90;;;;;;5053071;28;20028;-75
2022/07/09 05:00:10;;;;;;;31.60;25.75;;;18.90;99.90;;;;;;5052542;28;20021;-76
2022/07/09 05:02:37;;;;;;;36.67;26.08;;;19.30;99.90;;;;;;5052924;28;20029;-76
2022/07/09 05:05:03;;;;;;;35.28;25.85;;;19.40;99.90;;;;;;5052951;28;20021;-76
2022/07/09 05:07:33;;;;;;;38.42;24.92;;;19.60;99.90;;;;;;5053056;28;20367;-76
2022/07/09 05:10:01;;;;;;;37.97;25.15;;;19.20;99.90;;;;;;5052536;28;20037;-76
2022/07/09 05:12:27;;;;;;;40.63;24.88;;;19.00;99.90;;;;;;5052686;28;20044;-76
2022/07/09 05:14:54;;;;;;;39.78;26.20;;;18.80;99.90;;;;;;5051510;28;20021;-76
2022/07/09 05:17:20;;;;;;;35.47;25.38;;;19.20;99.90;;;;;;5052997;28;20473;-76
2022/07/09 05:19:46;;;;;;;37.90;24.45;;;19.60;99.90;;;;;;5052647;28;20384;-76
2022/07/09 05:22:12;;;;;;;36.83;25.15;;;19.80;99.90;;;;;;5052871;28;20031;-76
2022/07/09 05:24:38;;;;;;;34.20;24.73;;;19.60;99.90;;;;;;5052265;28;20530;-76
2022/07/09 05:27:04;;;;;;;38.25;26.45;;;19.70;99.90;;;;;;5052896;28;20029;-75
2022/07/09 05:29:30;;;;;;;39.13;26.67;;;19.70;99.90;;;;;;5052251;28;20461;-75
2022/07/09 05:31:57;;;;;;;34.72;25.50;;;19.60;99.90;;;;;;5052732;28;20043;-76
2022/07/09 05:34:23;;;;;;;35.38;24.67;;;19.50;99.90;;;;;;5051877;28;20025;-75
2022/07/09 05:36:51;;;;;;;39.97;25.60;;;19.20;99.90;;;;;;5052581;28;20083;-75
2022/07/09 05:39:18;;;;;;;38.28;24.92;;;19.50;99.90;;;;;;5052383;28;20036;-76
2022/07/09 05:41:44;;;;;;;38.47;25.00;;;19.60;99.90;;;;;;5051343;28;20484;-76
2022/07/09 05:44:10;;;;;;;36.17;25.55;;;19.60;99.90;;;;;;5051089;28;20029;-76
2022/07/09 05:46:36;;;;;;;32.10;24.63;;;19.80;99.90;;;;;;5052390;28;20021;-76
2022/07/09 05:49:02;;;;;;;37.40;24.10;;;19.90;99.90;;;;;;5051451;28;20044;-76
2022/07/09 05:51:28;;;;;;;36.50;24.00;;;20.10;99.90;;;;;;5052488;28;20045;-76
2022/07/09 05:53:54;;;;;;;34.90;23.30;;;19.70;99.90;;;;;;5052329;28;20025;-75
2022/07/09 05:56:21;;;;;;;38.50;25.02;;;19.50;99.90;;;;;;5052453;28;20048;-75
2022/07/09 05:58:47;;;;;;;33.92;24.13;;;19.50;99.90;;;;;;5052015;28;20021;-75
2022/07/09 06:01:13;;;;;;;35.95;22.67;;;19.70;99.90;;;;;;5052343;28;20021;-76
2022/07/09 06:03:42;;;;;;;31.38;21.88;;;19.70;99.90;;;;;;5052481;28;20024;-75
2022/07/09 06:06:09;;;;;;;26.15;21.15;;;19.80;99.90;;;;;;5052104;28;20473;-75
2022/07/09 06:08:34;;;;;;;28.50;19.35;;;19.70;99.90;;;;;;5051936;28;20025;-76
2022/07/09 06:11:00;;;;;;;29.08;20.42;;;19.90;99.90;;;;;;5052067;28;20477;-76
2022/07/09 06:13:26;;;;;;;30.05;19.08;;;19.70;99.90;;;;;;5052206;28;20025;-76
2022/07/09 06:15:52;;;;;;;29.17;20.83;;;19.90;99.90;;;;;;5052211;28;20527;-75
2022/07/09 06:18:18;;;;;;;27.20;17.30;;;20.00;99.90;;;;;;5052076;28;20032;-76
2022/07/09 06:20:44;;;;;;;28.38;18.83;;;20.10;99.90;;;;;;5052013;28;20033;-76
2022/07/09 06:23:11;;;;;;;24.85;17.30;;;19.90;99.90;;;;;;5051076;28;20068;-76
2022/07/09 06:25:38;;;;;;;23.23;18.92;;;19.70;99.90;;;;;;5051047;28;20025;-75
2022/07/09 06:28:04;;;;;;;29.23;18.77;;;20.10;99.90;;;;;;5051697;28;20029;-75
2022/07/09 06:30:30;;;;;;;28.23;19.52;;;20.30;99.90;;;;;;5051856;28;20473;-75
2022/07/09 06:32:56;;;;;;;29.48;20.38;;;20.40;99.90;;;;;;5052024;28;20494;-75
2022/07/09 06:35:22;;;;;;;30.70;20.33;;;20.30;99.90;;;;;;5052102;28;20048;-75
2022/07/09 06:37:48;;;;;;;33.05;21.23;;;20.40;99.90;;;;;;5052127;28;20056;-75
2022/07/09 06:40:14;;;;;;;29.63;20.40;;;20.30;99.90;;;;;;5051856;28;20049;-76
2022/07/09 06:42:41;;;;;;;32.03;21.70;;;20.70;99.90;;;;;;5051693;28;20029;-76
2022/07/09 06:45:17;;;;;;;32.92;21.27;;;20.40;99.90;;;;;;5052000;28;20067;-75
2022/07/09 06:47:42;;;;;;;31.85;21.10;;;20.20;99.90;;;;;;5055358;28;20096;-76
2022/07/09 06:50:08;;;;;;;31.83;21.35;;;20.20;99.90;;;;;;5055325;28;20116;-76
2022/07/09 06:52:34;;;;;;;28.25;20.83;;;20.20;99.90;;;;;;5055347;28;20029;-75
2022/07/09 06:54:59;;;;;;;34.03;20.88;;;20.30;99.90;;;;;;5054055;28;20124;-76
2022/07/09 06:57:26;;;;;;;31.10;20.77;;;20.50;99.90;;;;;;5053723;28;20032;-75
2022/07/09 06:59:51;;;;;;;29.33;20.05;;;20.50;99.90;;;;;;5053956;28;20482;-76
2022/07/09 07:02:17;;;;;;;26.58;20.73;;;20.70;99.90;;;;;;5054112;28;20061;-80
2022/07/09 07:04:43;;;;;;;26.98;19.95;;;20.80;99.90;;;;;;5054200;28;20028;-76
2022/07/09 07:07:09;;;;;;;29.70;20.70;;;20.50;99.90;;;;;;5055182;28;20021;-75
2022/07/09 07:09:34;;;;;;;27.75;21.00;;;20.60;99.90;;;;;;5054644;28;20463;-76
2022/07/09 07:12:00;;;;;;;34.60;22.05;;;20.70;99.90;;;;;;5054715;28;20044;-76
2022/07/09 07:14:26;;;;;;;31.98;22.73;;;20.80;99.90;;;;;;5054965;28;20013;-76
2022/07/09 07:16:53;;;;;;;30.33;22.42;;;20.60;99.90;;;;;;5054856;28;20037;-75
2022/07/09 07:19:22;;;;;;;33.55;22.20;;;20.60;99.90;;;;;;5054791;28;20075;-76
2022/07/09 07:21:48;;;;;;;30.27;23.08;;;20.60;99.90;;;;;;5053633;28;20021;-76
2022/07/09 07:24:14;;;;;;;37.50;25.90;;;20.90;99.90;;;;;;5053765;28;20025;-75
2022/07/09 07:26:40;;;;;;;39.65;26.77;;;20.90;99.90;;;;;;5054405;28;20129;-75
2022/07/09 07:29:06;;;;;;;38.58;26.40;;;20.70;99.90;;;;;;5054873;28;20484;-76
2022/07/09 07:31:32;;;;;;;36.80;26.90;;;20.70;99.90;;;;;;5054504;28;20037;-76
2022/07/09 07:33:59;;;;;;;38.17;26.70;;;21.00;99.90;;;;;;5054706;28;20029;-76
2022/07/09 07:36:26;;;;;;;36.67;25.85;;;21.10;99.90;;;;;;5036637;28;20472;-76
2022/07/09 07:38:53;;;;;;;35.70;25.33;;;21.20;99.90;;;;;;5054334;28;20025;-76
2022/07/09 07:41:20;;;;;;;35.60;25.88;;;21.10;99.90;;;;;;5054278;28;20027;-75
2022/07/09 07:43:47;;;;;;;35.17;25.60;;;21.00;99.90;;;;;;5053350;28;20071;-76
2022/07/09 07:46:13;;;;;;;37.30;25.25;;;21.00;99.90;;;;;;5054529;28;20031;-76
2022/07/09 07:48:41;;;;;;;33.88;24.60;;;21.10;99.90;;;;;;5054139;28;20028;-76
2022/07/09 07:51:08;;;;;;;35.47;24.38;;;21.10;99.90;;;;;;5054333;28;20076;-75
2022/07/09 07:53:35;;;;;;;37.90;24.70;;;21.20;99.90;;;;;;5053749;28;20037;-75
2022/07/09 07:56:04;;;;;;;33.50;23.35;;;21.30;99.90;;;;;;5054150;28;20074;-75
2022/07/09 07:58:30;;;;;;;39.42;25.40;;;21.30;99.90;;;;;;5053547;28;20044;-75
2022/07/09 08:00:59;;;;;;;37.20;24.65;;;21.20;99.90;;;;;;5053971;28;20028;-75
2022/07/09 08:03:26;;;;;;;35.42;24.92;;;21.20;99.90;;;;;;5054123;28;20366;-75
2022/07/09 08:05:51;;;;;;;37.53;24.73;;;21.10;99.90;;;;;;5052925;28;20033;-75
2022/07/09 08:08:21;;;;;;;29.60;21.67;;;21.50;99.90;;;;;;5052192;28;20119;-75
2022/07/09 08:10:48;;;;;;;26.83;21.45;;;21.60;99.90;;;;;;5035789;28;20103;-75
2022/07/09 08:13:15;;;;;;;31.42;21.33;;;21.40;99.90;;;;;;5052554;28;20028;-75
2022/07/09 08:15:41;;;;;;;29.58;20.52;;;21.70;99.90;;;;;;5052598;28;20458;-75
2022/07/09 08:18:08;;;;;;;31.38;20.55;;;22.00;99.90;;;;;;5053691;28;20021;-77
2022/07/09 08:20:36;;;;;;;25.17;17.13;;;22.50;99.90;;;;;;5053876;28;20029;-77
2022/07/09 08:23:02;;;;;;;18.55;13.45;;;22.80;99.90;;;;;;5053099;28;20422;-77
2022/07/09 08:25:28;;;;;;;22.02;13.90;;;23.10;99.90;;;;;;5053792;28;20067;-77
2022/07/09 08:27:54;;;;;;;20.58;13.80;;;22.90;99.90;;;;;;5052255;28;20041;-76
2022/07/09 08:30:19;;;;;;;19.13;12.32;;;22.80;99.90;;;;;;5053344;28;20452;-75
2022/07/09 08:32:45;;;;;;;19.35;13.40;;;23.00;99.90;;;;;;5053498;28;20111;-77
2022/07/09 08:35:11;;;;;;;17.05;11.77;;;23.00;99.90;;;;;;5053204;28;20040;-77
2022/07/09 08:37:37;;;;;;;21.30;12.40;;;23.00;99.90;;;;;;5053285;28;20063;-76
2022/07/09 08:40:06;;;;;;;17.83;11.75;;;22.80;99.90;;;;;;5053168;28;20033;-75
2022/07/09 08:42:32;;;;;;;17.88;11.57;;;22.00;99.90;;;;;;5053370;28;20033;-76
2022/07/09 08:44:59;;;;;;;20.25;12.05;;;22.00;99.90;;;;;;5051843;28;20029;-77
2022/07/09 08:47:25;;;;;;;18.63;11.32;;;22.00;99.90;;;;;;5053410;28;20017;-77
2022/07/09 08:49:56;;;;;;;15.40;10.55;;;21.80;99.90;;;;;;5053189;28;20025;-77
2022/07/09 08:52:23;;;;;;;17.43;10.00;;;21.80;99.90;;;;;;5052994;28;20040;-76
2022/07/09 08:54:52;;;;;;;16.60;9.30;;;22.00;99.90;;;;;;5053090;28;20473;-75
2022/07/09 08:57:17;;;;;;;14.68;9.07;;;22.30;99.90;;;;;;5052878;28;20024;-76
2022/07/09 08:59:43;;;;;;;12.30;7.70;;;22.60;99.90;;;;;;5051725;28;20036;-75
2022/07/09 09:02:09;;;;;;;10.70;6.95;;;22.80;99.90;;;;;;5053081;28;20155;-76
2022/07/09 09:04:39;;;;;;;18.15;6.40;;;22.40;99.90;;;;;;5051600;28;20476;-76
2022/07/09 09:07:14;;;;;;;13.70;5.53;;;21.90;99.90;;;;;;5052801;28;20469;-75
2022/07/09 09:09:40;;;;;;;11.75;5.32;;;21.60;99.90;;;;;;5051745;28;20040;-76
2022/07/09 09:12:07;;;;;;;11.07;5.30;;;21.90;99.90;;;;;;5051663;28;20049;-77
2022/07/09 09:14:32;;;;;;;8.50;4.60;;;22.30;99.90;;;;;;5051635;28;20021;-75
2022/07/09 09:17:14;;;;;;;8.02;4.05;;;22.80;99.90;;;;;;5052744;28;20496;-76
2022/07/09 09:19:40;;;;;;;;;;;22.90;99.90;;;;;;5053103;28;20025;-76
2022/07/09 09:22:07;;;;;;;6.30;3.10;;;23.20;99.90;;;;;;5052548;28;19912;-76
2022/07/09 09:24:34;;;;;;;9.20;2.65;;;23.40;99.90;;;;;;5051197;28;20059;-77
2022/07/09 09:27:01;;;;;;;8.85;2.30;;;23.40;99.90;;;;;;5051474;28;20049;-77
2022/07/09 09:29:27;;;;;;;7.68;2.45;;;23.30;99.90;;;;;;5052409;28;20033;-77
2022/07/09 09:31:53;;;;;;;10.07;3.03;;;23.50;99.90;;;;;;5052714;28;20037;-76
2022/07/09 09:34:20;;;;;;;6.47;2.47;;;23.80;99.90;;;;;;5051424;28;20037;-77
2022/07/09 09:36:47;;;;;;;3.72;2.25;;;23.90;99.90;;;;;;5052026;28;20017;-76
2022/07/09 09:39:24;;;;;;;6.10;2.78;;;22.90;99.90;;;;;;5052659;28;20036;-77
2022/07/09 09:42:00;;;;;;;5.43;1.70;;;23.00;99.90;;;;;;5051291;28;20485;-76
2022/07/09 09:44:37;;;;;;;3.17;1.85;;;22.40;99.90;;;;;;5052593;28;20025;-77
2022/07/09 09:47:04;;;;;;;7.28;1.40;;;22.20;99.90;;;;;;5052392;28;20370;-77
2022/07/09 09:49:30;;;;;;;8.98;1.63;;;22.30;99.90;;;;;;5052223;28;20017;-77
2022/07/09 09:52:08;;;;;;;2.53;1.40;;;22.20;99.90;;;;;;5052150;28;20029;-76
2022/07/09 09:54:36;;;;;;;6.22;1.20;;;22.20;99.90;;;;;;5051217;28;20043;-76
2022/07/09 09:57:10;;;;;;;4.05;0.98;;;22.10;99.90;;;;;;5052463;28;20025;-76
2022/07/09 09:59:40;;;;;;;0.95;0.85;;;22.40;99.90;;;;;;5052387;28;20024;-77
2022/07/09 10:02:09;;;;;;;5.18;1.33;;;22.50;99.90;;;;;;5052294;28;20025;-76
2022/07/09 10:04:36;;;;;;;4.97;1.17;;;23.00;99.90;;;;;;5051886;28;20400;-77
2022/07/09 10:07:04;;;;;;;3.80;1.33;;;22.40;99.90;;;;;;5052408;28;20370;-76
2022/07/09 10:09:29;;;;;;;2.78;1.25;;;22.10;99.90;;;;;;5050989;28;20119;-76
2022/07/09 10:11:56;;;;;;;3.45;1.02;;;22.20;99.90;;;;;;5052318;28;20116;-76
2022/07/09 10:14:25;;;;;;;2.70;1.00;;;22.70;99.90;;;;;;5051973;28;20029;-77
2022/07/09 10:16:52;;;;;;;2.08;1.30;;;22.60;99.90;;;;;;5052225;28;20064;-76
2022/07/09 10:19:26;;;;;;;4.57;1.13;;;22.60;99.90;;;;;;5051699;28;20384;-77
2022/07/09 10:21:57;;;;;;;3.38;1.45;;;23.00;99.90;;;;;;5056064;28;20358;-77
2022/07/09 10:24:28;;;;;;;2.92;1.10;;;23.00;99.90;;;;;;5055767;28;20032;-77
2022/07/09 10:27:09;;;;;;;6.03;0.93;;;22.90;99.90;;;;;;5055990;28;20465;-77
2022/07/09 10:29:56;;;;;;;4.80;0.95;;;22.70;99.90;;;;;;5056016;28;20163;-76
2022/07/09 10:32:32;;;;;;;2.50;1.08;;;23.20;99.90;;;;;;5055540;28;20037;-75
2022/07/09 10:35:01;;;;;;;4.00;0.93;;;23.60;99.90;;;;;;5055526;28;20067;-75
2022/07/09 10:37:42;;;;;;;1.90;0.95;;;23.70;99.90;;;;;;5054251;28;20040;-75
2022/07/09 10:40:09;;;;;;;6.70;1.15;;;24.10;99.90;;;;;;5054307;28;20072;-75
2022/07/09 10:42:34;;;;;;;4.32;1.20;;;24.40;99.90;;;;;;5055615;28;20060;-75
2022/07/09 10:45:00;;;;;;;3.50;1.13;;;24.20;99.90;;;;;;5055566;28;20473;-76
2022/07/09 10:47:38;;;;;;;2.58;0.88;;;23.90;99.90;;;;;;5054244;28;20013;-75
2022/07/09 10:50:05;;;;;;;3.33;1.15;;;24.40;99.90;;;;;;5054122;28;20025;-75
2022/07/09 10:52:31;;;;;;;4.97;1.20;;;24.30;99.90;;;;;;5055419;28;20116;-75
2022/07/09 10:54:57;;;;;;;7.07;1.00;;;23.80;99.90;;;;;;5054257;28;20028;-75
2022/07/09 10:57:23;;;;;;;1.92;1.17;;;23.20;99.90;;;;;;5055191;28;20044;-76
2022/07/09 10:59:49;;;;;;;3.22;1.00;;;22.90;99.90;;;;;;5055197;28;20033;-76
2022/07/09 11:02:22;;;;;;;4.45;0.90;;;23.40;99.90;;;;;;5054725;28;20036;-76
2022/07/09 11:04:52;;;;;;;7.57;1.15;;;23.30;99.90;;;;;;5055551;28;20029;-76
2022/07/09 11:07:23;;;;;;;3.15;1.20;;;23.10;99.90;;;;;;5054953;28;20032;-76
2022/07/09 11:09:49;;;;;;;7.30;1.42;;;23.10;99.90;;;;;;5055020;28;20509;-76
2022/07/09 11:12:19;;;;;;;6.32;1.30;;;23.30;99.90;;;;;;5054856;28;20052;-76
2022/07/09 11:14:46;;;;;;;4.72;0.95;;;23.40;99.90;;;;;;5054861;28;20031;-77
2022/07/09 11:17:21;;;;;;;5.00;1.08;;;23.40;99.90;;;;;;5053531;28;20028;-76
2022/07/09 11:19:49;;;;;;;4.70;1.10;;;23.80;99.90;;;;;;5054865;28;20381;-77
2022/07/09 11:22:15;;;;;;;5.30;0.95;;;23.70;99.90;;;;;;5054512;28;20029;-75
2022/07/09 11:24:41;;;;;;;4.47;1.08;;;23.50;99.90;;;;;;5054750;28;20531;-75
2022/07/09 11:27:08;;;;;;;4.25;1.13;;;23.30;99.90;;;;;;5054803;28;20060;-76
2022/07/09 11:29:37;;;;;;;4.93;1.00;;;22.80;99.90;;;;;;5054531;28;20028;-76
2022/07/09 11:32:04;;;;;;;6.40;1.20;;;23.10;99.90;;;;;;5053411;28;20079;-77
2022/07/09 11:34:30;;;;;;;3.45;0.82;;;23.60;99.90;;;;;;5053120;28;20505;-76
2022/07/09 11:36:58;;;;;;;4.13;1.10;;;23.40;99.90;;;;;;5037048;28;20086;-76
2022/07/09 11:39:36;;;;;;;1.98;0.90;;;23.40;99.90;;;;;;5054696;28;20520;-76
2022/07/09 11:42:04;;;;;;;4.13;0.90;;;23.50;99.90;;;;;;5054538;28;20048;-76
2022/07/09 11:44:35;;;;;;;3.58;1.20;;;23.40;99.90;;;;;;5054437;28;20495;-77
2022/07/09 11:47:11;;;;;;;6.28;1.17;;;23.70;99.90;;;;;;5054190;28;20078;-76
2022/07/09 11:49:39;;;;;;;12.98;1.67;;;23.40;99.90;;;;;;5054251;28;20446;-76
2022/07/09 11:52:25;;;;;;;4.30;0.90;;;23.50;99.90;;;;;;5054090;28;20104;-77
2022/07/09 11:55:08;;;;;;;7.85;1.20;;;23.60;99.90;;;;;;5054154;28;20041;-75
2022/07/09 11:57:35;;;;;;;6.93;1.25;;;23.60;99.90;;;;;;5053996;28;20032;-77
2022/07/09 12:00:08;;;;;;;6.07;1.20;;;23.10;99.90;;;;;;5053979;28;20074;-77
2022/07/09 12:02:39;;;;;;;2.55;0.98;;;22.70;99.90;;;;;;5053606;28;20086;-76
2022/07/09 12:05:11;;;;;;;11.70;1.38;;;23.00;99.90;;;;;;5054092;28;20424;-76
2022/07/09 12:07:37;;;;;;;3.03;1.05;;;23.20;99.90;;;;;;5053743;28;20032;-76
2022/07/09 12:10:08;;;;;;;5.30;1.40;;;23.10;99.90;;;;;;5054053;28;20029;-76
2022/07/09 12:12:35;;;;;;;3.15;0.93;;;23.30;99.90;;;;;;5053513;28;20069;-77
2022/07/09 12:15:05;;;;;;;2.10;1.00;;;23.20;99.90;;;;;;5053410;28;20492;-76
2022/07/09 12:17:32;;;;;;;3.50;1.20;;;23.70;99.90;;;;;;5053650;28;20480;-77
2022/07/09 12:19:58;;;;;;;4.30;1.33;;;23.90;99.90;;;;;;5053992;28;20017;-76
2022/07/09 12:22:25;;;;;;;2.13;1.05;;;23.70;99.90;;;;;;5053680;28;20354;-77
2022/07/09 12:24:52;;;;;;;2.42;1.00;;;23.30;99.90;;;;;;5053501;28;20031;-76
2022/07/09 12:27:19;;;;;;;6.85;1.27;;;23.60;99.90;;;;;;5053703;28;20036;-76
2022/07/09 12:29:46;;;;;;;1.58;0.80;;;23.20;99.90;;;;;;5053279;28;20033;-76
2022/07/09 12:32:12;;;;;;;2.17;0.73;;;23.20;99.90;;;;;;5053639;28;20040;-75